Hoxeyville, Michigan
Current Conditions -  °F | °C
As of 11:54 AM on Saturday 25 Oct 2014 (Local Time) from KCAD Reporting Station
Clear Clear  
Wind Chill: 60°   Ceiling: Unl
Heat Index: 60°   Visibility: 10mi
Dew Point: 43°   Wind: 22mph
Humidity: 54%   Direction: 280°W
Pressure: 29.77"   Gusts: 32mph
Location:  44.2433°N, 85.5328°W
Report Text: KCAD 251554Z AUTO 28019G28KT 10SM CLR 15/06 A2977 RMK AO2 T01560063
Loading
Personal Weather Stations






























Interactive Weather Map New forecast layout! Learn more

10-Day Weather Forecast

Advertisements
Track Severe Weather on mobile